Time;durP1;ratioP1;P1;durP2;ratioP2;P2;SDS_P1;SDS_P2;PMS_P1;PMS_P2;Temp;Humidity;BMP_temperature;BMP_pressure;BME280_temperature;BME280_humidity;BME280_pressure;Samples;Min_cycle;Max_cycle;Signal;HPM_P1;HPM_P2
2022/06/19 00:01:36;;;;;;;19.17;5.93;;;;;;;26.12;58.84;100151.88;5058596;28;20110;-72
2022/06/19 00:04:05;;;;;;;14.68;5.30;;;;;;;25.59;61.37;100112.53;5078467;28;20051;-73
2022/06/19 00:06:34;;;;;;;22.75;5.78;;;;;;;25.56;62.01;100125.44;5065843;28;20614;-72
2022/06/19 00:09:04;;;;;;;19.97;6.03;;;;;;;25.61;61.98;100148.75;5046886;28;20636;-72
2022/06/19 00:11:33;;;;;;;23.40;6.13;;;;;;;25.58;62.05;100168.13;5064035;28;20062;-70
2022/06/19 00:14:01;;;;;;;15.30;5.47;;;;;;;25.26;63.18;100207.25;5082688;28;20379;-74
2022/06/19 00:16:29;;;;;;;19.20;5.95;;;;;;;24.75;64.60;100218.03;5060817;28;20051;-73
2022/06/19 00:18:56;;;;;;;20.38;6.63;;;;;;;24.67;64.82;100206.03;5061451;28;20071;-74
2022/06/19 00:21:23;;;;;;;13.95;5.28;;;;;;;24.73;64.07;100190.28;5083809;28;20055;-73
2022/06/19 00:23:55;;;;;;;21.23;5.85;;;;;;;24.21;66.10;100200.94;5077977;28;20547;-74
2022/06/19 00:26:23;;;;;;;23.77;6.10;;;;;;;24.13;66.13;100205.00;5079677;28;20040;-73
2022/06/19 00:28:56;;;;;;;18.45;6.05;;;;;;;23.96;66.30;100224.84;5063645;28;20044;-75
2022/06/19 00:31:23;;;;;;;14.93;5.53;;;;;;;23.72;66.52;100221.03;5048138;28;20056;-73
2022/06/19 00:33:51;;;;;;;15.73;5.68;;;;;;;23.07;67.89;100218.22;5063121;28;20451;-73
2022/06/19 00:36:21;;;;;;;25.20;6.03;;;;;;;22.93;67.87;100190.22;5083407;28;20036;-72
2022/06/19 00:38:48;;;;;;;22.42;6.10;;;;;;;23.02;67.53;100163.28;5082220;28;20558;-73
2022/06/19 00:41:16;;;;;;;14.32;5.20;;;;;;;22.68;67.90;100179.13;5084896;28;20408;-74
2022/06/19 00:43:59;;;;;;;14.98;5.35;;;;;;;22.33;68.79;100165.97;5084033;28;20065;-72
2022/06/19 00:46:47;;;;;;;24.17;6.20;;;;;;;22.57;67.40;100191.59;5051041;28;20052;-73
2022/06/19 00:49:17;;;;;;;21.27;5.70;;;;;;;22.41;67.50;100197.63;5048749;28;20057;-73
2022/06/19 00:51:44;;;;;;;20.55;4.90;;;;;;;22.55;66.46;100208.84;5059314;28;20052;-73
2022/06/19 00:54:15;;;;;;;23.98;5.25;;;;;;;22.04;67.33;100234.56;5057826;28;20044;-73
2022/06/19 00:56:42;;;;;;;15.40;4.90;;;;;;;22.24;66.40;100229.34;5077437;28;20051;-68
2022/06/19 00:59:11;;;;;;;19.98;5.80;;;;;;;21.67;67.82;100205.31;5063937;28;20067;-70
2022/06/19 01:01:39;;;;;;;20.00;4.97;;;;;;;21.57;68.56;100234.13;5086125;28;20404;-69
2022/06/19 01:04:13;;;;;;;15.88;4.50;;;;;;;21.45;68.20;100249.34;5079979;28;20119;-69
2022/06/19 01:06:40;;;;;;;24.83;4.90;;;;;;;21.48;68.02;100251.34;5061620;28;20546;-69
2022/06/19 01:09:08;;;;;;;19.25;4.95;;;;;;;21.53;67.27;100231.31;5063897;28;20051;-69
2022/06/19 01:11:38;;;;;;;23.02;4.88;;;;;;;21.44;66.61;100232.91;5052566;28;20074;-70
2022/06/19 01:14:09;;;;;;;21.10;4.60;;;;;;;21.13;67.56;100256.88;5077493;28;20538;-69
2022/06/19 01:16:37;;;;;;;22.77;5.13;;;;;;;20.63;68.36;100229.81;5062791;28;20524;-69
2022/06/19 01:19:08;;;;;;;27.40;4.53;;;;;;;20.40;69.70;100218.91;5040651;28;20048;-71
2022/06/19 01:21:44;;;;;;;19.15;4.57;;;;;;;20.27;70.29;100231.63;5078189;28;20054;-69
2022/06/19 01:24:19;;;;;;;25.67;5.78;;;;;;;20.08;69.61;100235.44;5063288;28;20048;-70
2022/06/19 01:26:50;;;;;;;30.70;6.22;;;;;;;20.23;68.52;100244.78;5077326;28;20432;-69
2022/06/19 01:29:19;;;;;;;25.65;5.90;;;;;;;20.29;68.42;100245.22;5056604;28;20044;-70
2022/06/19 01:31:49;;;;;;;29.58;6.82;;;;;;;19.88;69.08;100222.94;5050738;28;20053;-69
2022/06/19 01:34:29;;;;;;;28.35;6.25;;;;;;;19.61;70.07;100246.69;5065161;28;20063;-70
2022/06/19 01:37:28;;;;;;;30.33;6.93;;;;;;;19.44;70.49;100268.84;5086451;28;20036;-68
2022/06/19 01:39:59;;;;;;;33.63;7.20;;;;;;;19.45;70.17;100251.69;5077698;28;20058;-70
2022/06/19 01:42:28;;;;;;;33.20;7.30;;;;;;;19.10;70.92;100270.84;5052707;28;20059;-69
2022/06/19 01:44:56;;;;;;;27.95;7.80;;;;;;;18.85;72.40;100273.31;5077644;28;20075;-69
2022/06/19 01:47:24;;;;;;;28.08;6.95;;;;;;;19.03;70.84;100263.19;5074594;28;20061;-70
2022/06/19 01:49:53;;;;;;;34.30;8.75;;;;;;;18.59;72.54;100256.63;5050532;28;20041;-70
2022/06/19 01:52:23;;;;;;;28.35;7.93;;;;;;;18.63;72.32;100217.63;5076588;28;20060;-69
2022/06/19 01:55:04;;;;;;;33.83;8.27;;;;;;;19.10;70.22;100217.78;5069828;28;20500;-69
2022/06/19 01:57:32;;;;;;;35.67;8.57;;;;;;;18.91;70.32;100231.94;5059607;28;20412;-70
2022/06/19 02:00:02;;;;;;;32.65;7.47;;;;;;;19.02;69.32;100241.25;5059532;28;20060;-70
2022/06/19 02:02:39;;;;;;;35.53;7.50;;;;;;;18.74;70.32;100244.47;5078375;28;20654;-70
2022/06/19 02:05:07;;;;;;;36.13;8.05;;;;;;;18.49;71.25;100248.94;5075220;28;20052;-69
2022/06/19 02:07:35;;;;;;;30.38;7.90;;;;;;;18.50;71.31;100266.44;5041681;28;20055;-70
2022/06/19 02:10:04;;;;;;;41.78;7.57;;;;;;;18.77;70.77;100284.78;5065496;28;20518;-71
2022/06/19 02:12:32;;;;;;;29.73;7.50;;;;;;;18.68;70.40;100304.59;5063142;28;20404;-69
2022/06/19 02:15:02;;;;;;;35.90;7.20;;;;;;;18.86;69.84;100338.31;5082075;28;20071;-70
2022/06/19 02:17:33;;;;;;;34.63;8.32;;;;;;;18.92;69.76;100322.84;5070958;28;20056;-70
2022/06/19 02:20:01;;;;;;;29.88;7.88;;;;;;;18.98;68.63;100313.78;5048638;28;20406;-71
2022/06/19 02:22:28;;;;;;;39.03;7.47;;;;;;;19.06;69.02;100323.84;5080961;28;20059;-68
2022/06/19 02:24:55;;;;;;;39.00;7.90;;;;;;;18.88;69.13;100327.59;5076408;28;20422;-70
2022/06/19 02:27:25;;;;;;;34.92;7.50;;;;;;;19.08;68.33;100318.69;5050598;28;20056;-69
2022/06/19 02:29:54;;;;;;;34.08;6.95;;;;;;;19.32;67.80;100319.41;5084081;28;20047;-70
2022/06/19 02:32:24;;;;;;;28.67;6.93;;;;;;;19.25;67.38;100330.44;5039985;28;20045;-69
2022/06/19 02:34:52;;;;;;;28.42;7.35;;;;;;;19.40;66.73;100338.66;5065909;28;20922;-69
2022/06/19 02:37:23;;;;;;;21.08;6.53;;;;;;;19.20;67.38;100317.63;5079230;28;20048;-69
2022/06/19 02:40:19;;;;;;;33.20;7.07;;;;;;;18.86;68.09;100316.00;5073360;28;20051;-70
2022/06/19 02:42:48;;;;;;;23.23;6.07;;;;;;;18.84;68.91;100326.72;5045270;28;20057;-69
2022/06/19 02:45:27;;;;;;;29.42;6.82;;;;;;;18.67;69.25;100341.25;5080866;28;20040;-69
2022/06/19 02:47:57;;;;;;;28.05;7.50;;;;;;;18.50;69.79;100482.03;5033595;28;20053;-73
2022/06/19 02:50:30;;;;;;;25.60;6.38;;;;;;;18.63;70.26;100617.38;5087397;28;20064;-74
2022/06/19 02:52:57;;;;;;;24.13;7.07;;;;;;;18.80;69.67;100459.81;5056861;28;20499;-74
2022/06/19 02:55:25;;;;;;;32.30;7.93;;;;;;;18.78;69.36;100460.19;5080485;28;20052;-69
2022/06/19 02:57:53;;;;;;;30.85;6.75;;;;;;;18.38;70.77;100520.41;5076292;28;20060;-74
2022/06/19 03:00:26;;;;;;;22.20;6.95;;;;;;;18.51;70.78;100517.13;5085975;28;20060;-74
2022/06/19 03:02:57;;;;;;;24.88;6.65;;;;;;;18.42;70.43;100499.03;5039474;28;20048;-75
2022/06/19 03:05:27;;;;;;;31.88;7.85;;;;;;;18.12;71.56;100553.78;5082708;28;20063;-69
2022/06/19 03:07:54;;;;;;;30.50;7.20;;;;;;;17.96;72.12;100495.31;5071838;28;20056;-69
2022/06/19 03:10:22;;;;;;;27.90;6.72;;;;;;;17.65;73.93;100504.66;5045647;28;20064;-70
2022/06/19 03:12:49;;;;;;;29.83;7.10;;;;;;;17.71;73.74;100519.09;5070694;28;20051;-69
2022/06/19 03:15:17;;;;;;;30.50;8.32;;;;;;;17.87;73.22;100492.75;5079115;28;20048;-73
2022/06/19 03:17:45;;;;;;;36.25;7.22;;;;;;;17.61;74.03;100472.31;5068991;28;20032;-69
2022/06/19 03:20:15;;;;;;;39.75;7.47;;;;;;;17.60;74.23;100510.53;5084778;28;20057;-69
2022/06/19 03:22:43;;;;;;;30.40;7.95;;;;;;;17.71;73.70;100533.03;5072334;28;20047;-69
2022/06/19 03:25:10;;;;;;;31.90;7.30;;;;;;;17.55;74.62;100473.78;5077530;28;20064;-74
2022/06/19 03:27:38;;;;;;;30.92;7.32;;;;;;;18.08;72.49;100464.50;5085442;28;20040;-73
2022/06/19 03:30:06;;;;;;;26.50;6.30;;;;;;;17.90;72.48;100486.44;5047370;28;20514;-73
2022/06/19 03:32:33;;;;;;;33.85;7.63;;;;;;;17.50;74.09;100474.09;5069523;28;20048;-74
2022/06/19 03:35:01;;;;;;;29.38;7.15;;;;;;;17.71;73.91;100483.66;5083505;28;20049;-74
2022/06/19 03:37:28;;;;;;;32.38;7.05;;;;;;;17.85;72.81;100489.53;5068050;28;20040;-74
2022/06/19 03:39:55;;;;;;;32.05;7.63;;;;;;;17.66;73.87;100499.91;5071695;28;20488;-69
2022/06/19 03:42:23;;;;;;;27.88;7.20;;;;;;;17.88;72.26;100513.91;5059415;28;20055;-69
2022/06/19 03:44:50;;;;;;;37.65;8.73;;;;;;;17.73;72.87;100519.53;5077796;28;20060;-68
2022/06/19 03:47:26;;;;;;;29.30;7.63;;;;;;;17.65;73.46;100509.41;5081363;28;20056;-73
2022/06/19 03:49:53;;;;;;;30.42;8.48;;;;;;;17.73;72.63;100498.03;5067728;28;20053;-73
2022/06/19 03:52:23;;;;;;;32.00;8.73;;;;;;;17.44;74.00;100467.97;5042555;28;20052;-74
2022/06/19 03:54:50;;;;;;;36.05;8.57;;;;;;;17.65;73.05;100460.09;5046722;28;20298;-73
2022/06/19 03:57:17;;;;;;;40.55;9.85;;;;;;;17.63;72.67;100469.97;5060955;28;20050;-73
2022/06/19 03:59:45;;;;;;;28.85;9.05;;;;;;;17.66;72.57;100467.25;5047976;28;20048;-72
2022/06/19 04:02:13;;;;;;;32.67;8.43;;;;;;;17.72;72.37;100496.44;5062000;28;20049;-72
2022/06/19 04:04:40;;;;;;;28.10;8.23;;;;;;;17.77;72.38;100543.50;5060888;28;20041;-74
2022/06/19 04:07:13;;;;;;;33.70;7.50;;;;;;;18.31;70.84;100624.28;5051262;28;20091;-69
2022/06/19 04:09:41;;;;;;;30.38;8.32;;;;;;;18.75;68.66;100625.59;5059821;28;20045;-73
2022/06/19 04:12:09;;;;;;;27.63;7.43;;;;;;;19.08;66.99;100538.44;5057769;28;20052;-68
2022/06/19 04:14:36;;;;;;;25.80;7.90;;;;;;;18.89;67.60;100447.22;5027484;28;20250;-72
2022/06/19 04:17:05;;;;;;;35.08;8.70;;;;;;;18.46;70.01;100393.91;5054477;28;20041;-73
2022/06/19 04:19:32;;;;;;;30.70;9.07;;;;;;;18.19;72.02;100369.91;5053562;28;20048;-69
2022/06/19 04:22:00;;;;;;;27.75;8.00;;;;;;;18.15;73.31;100386.56;5060686;28;20162;-69
2022/06/19 04:24:27;;;;;;;27.52;7.93;;;;;;;17.88;72.95;100399.66;5063663;28;20673;-69
2022/06/19 04:26:54;;;;;;;27.85;8.82;;;;;;;18.16;73.71;100384.59;5065969;28;20040;-69
2022/06/19 04:29:22;;;;;;;28.23;8.38;;;;;;;18.27;73.29;100391.97;5062460;28;20491;-70
2022/06/19 04:31:49;;;;;;;37.22;9.00;;;;;;;18.39;73.19;100411.31;5065079;28;20049;-70
2022/06/19 04:34:17;;;;;;;29.63;8.20;;;;;;;18.38;72.63;100395.75;5041022;28;20052;-73
2022/06/19 04:36:44;;;;;;;25.85;7.80;;;;;;;18.61;71.68;100406.91;5068214;28;20374;-74
2022/06/19 04:39:11;;;;;;;32.42;8.07;;;;;;;18.66;70.54;100418.53;5051545;28;20057;-72
2022/06/19 04:41:42;;;;;;;32.17;7.68;;;;;;;18.16;71.93;100429.22;5051975;28;20396;-73
2022/06/19 04:44:14;;;;;;;30.13;8.23;;;;;;;17.66;74.51;100444.19;5058763;28;20064;-73
2022/06/19 04:46:42;;;;;;;28.10;7.47;;;;;;;17.69;74.71;100444.25;5053460;28;20053;-73
2022/06/19 04:49:12;;;;;;;38.83;8.80;;;;;;;17.81;75.32;100438.53;5056823;28;20055;-73
2022/06/19 04:51:40;;;;;;;25.77;7.40;;;;;;;17.90;73.61;100416.00;5060414;28;20155;-70
2022/06/19 04:54:08;;;;;;;31.50;8.65;;;;;;;17.89;74.00;100409.59;5078759;28;20075;-70
2022/06/19 04:56:37;;;;;;;28.45;7.60;;;;;;;17.80;73.85;100395.09;5050203;28;20396;-71
2022/06/19 04:59:05;;;;;;;23.27;7.20;;;;;;;17.90;73.30;100407.63;5042273;28;20068;-70
2022/06/19 05:01:35;;;;;;;22.42;7.70;;;;;;;17.95;72.74;100371.09;5060992;28;20048;-70
2022/06/19 05:04:10;;;;;;;;;;;;;;;18.11;72.47;100365.41;5059044;28;20059;-70
2022/06/19 05:06:37;;;;;;;33.83;7.32;;;;;;;18.12;72.88;100420.78;5066144;28;20284;-70
2022/06/19 05:09:05;;;;;;;37.80;7.53;;;;;;;18.32;72.33;100452.19;5046326;28;20130;-74
2022/06/19 05:11:32;;;;;;;27.42;7.05;;;;;;;18.40;71.65;100490.19;5072716;28;20416;-75
2022/06/19 05:14:00;;;;;;;28.73;7.13;;;;;;;18.63;70.29;100457.53;5057533;28;20065;-74
2022/06/19 05:16:28;;;;;;;31.38;8.40;;;;;;;18.38;70.14;100389.34;5078850;28;20443;-75
2022/06/19 05:18:56;;;;;;;23.63;6.88;;;;;;;18.07;72.82;100342.22;5040904;28;20059;-70
2022/06/19 05:21:25;;;;;;;27.73;6.38;;;;;;;17.89;73.03;100337.16;5064170;28;20530;-70
2022/06/19 05:23:54;;;;;;;30.15;6.47;;;;;;;17.60;75.00;100364.88;5075961;28;20049;-70
2022/06/19 05:26:29;;;;;;;23.95;5.88;;;;;;;17.91;74.40;100312.50;5072486;28;20067;-69
2022/06/19 05:28:57;;;;;;;28.35;7.15;;;;;;;17.76;75.54;100232.66;5074552;28;20036;-74
2022/06/19 05:31:25;;;;;;;23.27;5.85;;;;;;;17.84;74.92;100281.75;5041937;28;20423;-70
2022/06/19 05:33:53;;;;;;;27.40;6.38;;;;;;;17.57;75.42;100291.19;5049864;28;20407;-70
2022/06/19 05:36:21;;;;;;;30.38;7.05;;;;;;;17.58;76.06;100301.19;5086124;28;20044;-70
2022/06/19 05:38:50;;;;;;;30.48;7.35;;;;;;;17.72;76.55;100348.78;5082498;28;20049;-73
2022/06/19 05:41:18;;;;;;;22.92;6.18;;;;;;;17.76;75.40;100376.72;5079910;28;20051;-71
2022/06/19 05:43:49;;;;;;;29.23;5.70;;;;;;;17.68;75.55;100380.53;5055689;28;20053;-71
2022/06/19 05:46:18;;;;;;;24.58;5.47;;;;;;;17.91;74.36;100381.38;5052180;28;20051;-74
2022/06/19 05:48:46;;;;;;;34.35;5.30;;;;;;;17.70;74.12;100384.56;5082827;28;20041;-71
2022/06/19 05:51:17;;;;;;;19.65;5.55;;;;;;;17.27;74.95;100348.69;5085111;28;20052;-73
2022/06/19 05:53:48;;;;;;;21.00;5.70;;;;;;;17.34;75.41;100328.53;5088850;28;20044;-74
2022/06/19 05:56:16;;;;;;;23.10;6.18;;;;;;;17.44;74.56;100300.06;5080463;28;20537;-71
2022/06/19 05:58:43;;;;;;;21.63;5.82;;;;;;;17.30;74.44;100278.34;5074366;28;20056;-70
2022/06/19 06:01:11;;;;;;;24.17;5.30;;;;;;;17.16;75.40;100263.34;5070697;28;20049;-71
2022/06/19 06:03:39;;;;;;;22.02;4.65;;;;;;;17.23;74.54;100269.84;5059580;28;20050;-74
2022/06/19 06:06:11;;;;;;;22.45;4.78;;;;;;;17.13;75.02;100278.81;5059733;28;20055;-70
2022/06/19 06:08:39;;;;;;;19.98;4.50;;;;;;;17.21;74.91;100263.84;5082199;28;20037;-70
2022/06/19 06:11:06;;;;;;;25.73;5.07;;;;;;;17.25;74.63;100245.25;5058281;28;20044;-73
2022/06/19 06:13:34;;;;;;;20.92;4.55;;;;;;;17.31;74.67;100223.47;5071339;28;20491;-74
2022/06/19 06:16:02;;;;;;;20.52;5.20;;;;;;;16.92;75.52;100233.06;5074140;28;20044;-69
2022/06/19 06:18:30;;;;;;;26.42;4.63;;;;;;;17.16;74.56;100325.38;5055874;28;20485;-74
2022/06/19 06:21:02;;;;;;;16.02;4.05;;;;;;;16.98;75.96;100367.94;5073542;28;20044;-74
2022/06/19 06:23:30;;;;;;;21.27;4.90;;;;;;;17.13;75.23;100359.53;5049794;28;20078;-74
2022/06/19 06:26:03;;;;;;;20.45;4.97;;;;;;;17.72;73.41;100434.34;5066261;28;20048;-70
2022/06/19 06:28:32;;;;;;;20.35;4.72;;;;;;;17.73;72.21;100428.41;5064256;28;20071;-70
2022/06/19 06:30:59;;;;;;;21.67;4.57;;;;;;;17.81;72.65;100388.38;5047950;28;20051;-71
2022/06/19 06:33:26;;;;;;;26.58;5.03;;;;;;;17.48;74.38;100406.81;5062552;28;20040;-69
2022/06/19 06:35:55;;;;;;;26.70;4.88;;;;;;;17.66;74.96;100453.31;5055835;28;20427;-72
2022/06/19 06:38:23;;;;;;;20.85;4.78;;;;;;;17.93;73.23;100420.81;5085031;28;20044;-70
2022/06/19 06:40:51;;;;;;;17.55;5.18;;;;;;;17.85;72.14;100425.44;5080647;28;20063;-71
2022/06/19 06:43:19;;;;;;;22.70;5.55;;;;;;;17.33;73.91;100374.25;5065625;28;20052;-76
2022/06/19 06:45:48;;;;;;;27.17;6.20;;;;;;;17.81;73.86;100426.56;5058716;28;20937;-73
2022/06/19 06:48:16;;;;;;;17.92;4.72;;;;;;;18.18;70.88;100383.06;5079127;28;20051;-73
2022/06/19 06:50:44;;;;;;;19.90;4.18;;;;;;;17.78;71.92;100352.88;5044561;28;20056;-72
2022/06/19 06:53:12;;;;;;;24.67;4.47;;;;;;;17.56;73.13;100292.38;5072793;28;20499;-74
2022/06/19 06:55:44;;;;;;;26.58;5.53;;;;;;;17.25;75.30;100248.03;5072779;28;20047;-73
2022/06/19 06:58:12;;;;;;;22.02;4.72;;;;;;;17.19;74.93;100259.84;5039929;28;20512;-73
2022/06/19 07:00:39;;;;;;;20.13;6.00;;;;;;;17.43;74.52;100290.94;5058898;28;20052;-73
2022/06/19 07:03:07;;;;;;;25.75;4.82;;;;;;;17.08;75.52;100295.00;5065876;28;20063;-74
2022/06/19 07:05:34;;;;;;;25.20;5.45;;;;;;;17.01;76.51;100275.38;5073887;28;20052;-73
2022/06/19 07:08:02;;;;;;;22.20;5.00;;;;;;;17.02;75.22;100291.69;5058639;28;20040;-74
2022/06/19 07:10:30;;;;;;;19.90;4.22;;;;;;;16.92;76.43;100303.41;5077902;28;21519;-73
2022/06/19 07:12:57;;;;;;;27.80;4.65;;;;;;;16.94;76.14;100345.59;5060655;28;20052;-72
2022/06/19 07:15:25;;;;;;;22.95;5.10;;;;;;;16.82;76.25;100395.81;5058419;28;20051;-74
2022/06/19 07:17:52;;;;;;;22.05;5.07;;;;;;;16.89;77.01;100446.03;5086512;28;20056;-72
2022/06/19 07:20:19;;;;;;;22.90;4.55;;;;;;;16.52;78.34;100420.53;5061970;28;20491;-72
2022/06/19 07:22:47;;;;;;;23.13;4.43;;;;;;;16.66;78.12;100436.75;5095907;28;20054;-73
2022/06/19 07:25:19;;;;;;;20.55;4.15;;;;;;;16.58;77.04;100435.75;5063719;28;20048;-73
2022/06/19 07:27:47;;;;;;;23.15;4.43;;;;;;;16.81;76.82;100433.94;5071705;28;20044;-72
2022/06/19 07:30:21;;;;;;;20.17;3.85;;;;;;;16.39;77.69;100496.00;5090848;28;20056;-73
2022/06/19 07:32:49;;;;;;;21.17;4.25;;;;;;;16.57;77.83;100589.88;5030215;28;20051;-73
2022/06/19 07:35:16;;;;;;;21.23;4.07;;;;;;;17.84;73.71;100623.66;5055605;28;20048;-72
2022/06/19 07:37:44;;;;;;;14.82;3.75;;;;;;;17.02;76.00;100536.56;5076383;28;20055;-73
2022/06/19 07:40:17;;;;;;;22.08;4.35;;;;;;;16.86;75.65;100549.69;5076032;28;20538;-73
2022/06/19 07:42:44;;;;;;;19.40;4.80;;;;;;;16.42;77.61;100556.47;5044170;28;20072;-72
2022/06/19 07:45:12;;;;;;;18.95;3.58;;;;;;;16.57;78.00;100558.47;5067241;28;20057;-72
2022/06/19 07:50:27;;;;;;;21.50;4.47;;;;;;;16.59;76.94;100547.81;5079141;28;20060;-71
2022/06/19 07:52:54;;;;;;;16.45;4.15;;;;;;;16.89;77.14;100510.03;5076530;28;20055;-72
2022/06/19 07:55:27;;;;;;;32.15;4.90;;;;;;;16.87;76.75;100523.50;5064082;28;20062;-73
2022/06/19 07:57:54;;;;;;;21.67;4.32;;;;;;;16.65;77.69;100582.50;5057525;28;20052;-72
2022/06/19 08:00:26;;;;;;;18.55;4.32;;;;;;;17.47;75.29;100678.91;5056927;28;20060;-73
2022/06/19 08:02:54;;;;;;;22.65;4.28;;;;;;;18.33;71.57;100671.31;5056429;28;20111;-65
2022/06/19 08:05:26;;;;;;;16.83;4.05;;;;;;;17.29;73.35;100602.47;5091253;28;20412;-65
2022/06/19 08:07:54;;;;;;;21.55;4.10;;;;;;;17.31;73.71;100596.53;5075143;28;20052;-65
2022/06/19 08:10:37;;;;;;;15.88;3.72;;;;;;;17.28;74.47;100584.13;5074174;28;20556;-66
2022/06/19 08:13:05;;;;;;;21.30;4.55;;;;;;;17.35;74.31;100533.38;5075969;28;20056;-64
2022/06/19 08:15:34;;;;;;;14.65;4.35;;;;;;;17.30;74.49;100516.94;5074054;28;20043;-63
2022/06/19 08:18:02;;;;;;;23.88;4.47;;;;;;;17.35;73.92;100505.53;5077364;28;20056;-60
2022/06/19 08:20:29;;;;;;;23.98;4.60;;;;;;;17.43;74.82;100488.63;5084997;28;20081;-61
2022/06/19 08:22:57;;;;;;;20.35;4.95;;;;;;;18.04;72.90;100493.50;5075445;28;20044;-60
2022/06/19 08:25:24;;;;;;;18.13;4.32;;;;;;;18.06;71.04;100483.59;5079937;28;20608;-59
2022/06/19 08:27:53;;;;;;;20.88;5.38;;;;;;;17.96;70.98;100464.66;5078507;28;20044;-59
2022/06/19 08:30:31;;;;;;;18.77;4.53;;;;;;;18.00;71.28;100465.56;5080686;28;20059;-62
2022/06/19 08:33:03;;;;;;;18.48;4.47;;;;;;;17.90;71.87;100452.22;5073867;28;20049;-62
2022/06/19 08:35:32;;;;;;;15.80;4.38;;;;;;;18.33;71.00;100443.47;5059745;28;20066;-61
2022/06/19 08:38:03;;;;;;;21.45;4.95;;;;;;;18.27;70.45;100414.25;5053458;28;20059;-61
2022/06/19 08:40:55;;;;;;;23.67;5.63;;;;;;;18.18;71.56;100404.56;5064673;28;20059;-61
2022/06/19 08:43:45;;;;;;;21.85;4.95;;;;;;;18.44;70.06;100402.66;5062599;28;20055;-60
2022/06/19 08:46:37;;;;;;;20.27;4.55;;;;;;;18.30;69.99;100401.56;5051543;28;20674;-62
2022/06/19 08:49:35;;;;;;;19.58;5.75;;;;;;;18.08;70.44;100400.38;5060597;28;20048;-60
2022/06/19 08:52:38;;;;;;;17.85;4.88;;;;;;;17.94;71.45;100389.78;5057519;28;20487;-63
2022/06/19 08:55:09;;;;;;;24.92;5.43;;;;;;;17.96;72.04;100398.59;5030757;28;20056;-62
2022/06/19 08:57:47;;;;;;;18.70;5.57;;;;;;;18.21;71.27;100399.03;5062857;28;20049;-63
2022/06/19 09:00:31;;;;;;;16.75;4.80;;;;;;;18.84;69.29;100388.13;5074958;28;20407;-61
2022/06/19 09:03:10;;;;;;;17.52;5.25;;;;;;;19.01;67.73;100405.13;5070275;28;20488;-60
2022/06/19 09:05:44;;;;;;;23.08;5.20;;;;;;;19.54;66.66;100416.22;5055429;28;20056;-61
2022/06/19 09:08:24;;;;;;;18.73;4.68;;;;;;;19.62;64.89;100435.47;5078674;28;20499;-61
2022/06/19 09:11:13;;;;;;;19.93;5.60;;;;;;;19.33;66.54;100438.28;5061956;28;20045;-62
2022/06/19 09:13:55;;;;;;;22.98;4.72;;;;;;;20.14;65.44;100471.63;5075207;28;20056;-59
2022/06/19 09:16:30;;;;;;;19.48;4.57;;;;;;;19.98;63.41;100490.59;5076078;28;20051;-58
2022/06/19 09:19:11;;;;;;;18.77;4.65;;;;;;;20.77;62.41;100496.63;5064319;28;20055;-51
2022/06/19 09:21:44;;;;;;;17.25;4.07;;;;;;;21.50;60.07;100515.19;5059019;28;20445;-57
2022/06/19 09:24:27;;;;;;;17.67;4.10;;;;;;;21.93;57.94;100524.66;5055527;28;20052;-71
2022/06/19 09:26:59;;;;;;;16.67;4.40;;;;;;;22.10;57.76;100521.13;5053858;28;20059;-71
2022/06/19 09:29:49;;;;;;;20.42;4.65;;;;;;;22.27;57.61;100521.16;5066557;28;20052;-70
2022/06/19 09:32:22;;;;;;;20.30;5.45;;;;;;;22.18;57.23;100511.50;5045555;28;20115;-70
2022/06/19 09:34:59;;;;;;;21.33;4.95;;;;;;;21.60;58.68;100530.47;5062848;28;20041;-73
2022/06/19 09:37:41;;;;;;;19.65;5.60;;;;;;;21.63;58.59;100540.91;5068164;28;20052;-70
2022/06/19 09:40:17;;;;;;;20.25;5.03;;;;;;;21.63;58.03;100532.47;5056577;28;20547;-70
2022/06/19 09:42:49;;;;;;;19.08;4.75;;;;;;;21.37;58.11;100530.75;5062713;28;20056;-71
2022/06/19 09:45:20;;;;;;;17.38;5.10;;;;;;;21.34;59.52;100531.50;5056333;28;20048;-70
2022/06/19 09:48:05;;;;;;;19.42;5.57;;;;;;;21.58;58.76;100530.88;5076787;28;20427;-69
2022/06/19 09:50:55;;;;;;;21.58;5.90;;;;;;;21.79;58.41;100530.97;5054044;28;20427;-71
2022/06/19 09:53:32;;;;;;;22.92;5.85;;;;;;;21.10;60.36;100537.72;5079430;28;20534;-70
2022/06/19 09:56:45;;;;;;;26.83;6.60;;;;;;;19.65;65.48;100545.72;5056162;28;20061;-71
2022/06/19 09:59:20;;;;;;;24.90;6.60;;;;;;;18.90;69.45;100543.72;5043224;28;20066;-63
2022/06/19 10:01:56;;;;;;;19.45;5.93;;;;;;;19.42;68.33;100534.56;5077136;28;20051;-62
2022/06/19 10:04:53;;;;;;;17.98;6.20;;;;;;;18.81;70.63;100536.78;5051398;28;20048;-62
2022/06/19 10:07:23;;;;;;;22.80;6.57;;;;;;;19.05;69.60;100519.63;5069192;28;20057;-61
2022/06/19 10:10:05;;;;;;;27.10;6.53;;;;;;;19.51;68.42;100520.38;5069734;28;20048;-61
2022/06/19 10:12:42;;;;;;;19.88;6.25;;;;;;;20.08;66.62;100517.88;5077251;28;20063;-61
2022/06/19 10:15:16;;;;;;;28.40;7.45;;;;;;;19.44;67.54;100518.25;5057374;28;20048;-62
2022/06/19 10:18:41;;;;;;;23.58;7.10;;;;;;;19.55;67.81;100510.84;5081896;28;20452;-62
2022/06/19 10:24:18;;;;;;;25.38;7.53;;;;;;;19.58;68.05;100489.72;4988601;28;20050;-64
2022/06/19 10:27:35;;;;;;;21.90;6.53;;;;;;;19.43;69.28;100477.53;5038009;28;20056;-62
2022/06/19 10:30:04;;;;;;;34.88;8.18;;;;;;;19.73;68.38;100478.34;5024382;28;20056;-64
2022/06/19 10:32:56;;;;;;;29.35;7.53;;;;;;;19.57;68.54;100472.16;5064731;28;20053;-62
2022/06/19 10:35:45;;;;;;;24.63;8.02;;;;;;;19.65;67.58;100481.44;5055461;28;20044;-62
2022/06/19 10:38:35;;;;;;;21.95;8.18;;;;;;;19.54;68.60;100478.50;5066989;28;20056;-63
2022/06/19 10:44:24;;;;;;;25.90;8.30;;;;;;;19.68;69.01;100480.66;5083348;28;20048;-63
2022/06/19 10:47:18;;;;;;;23.25;7.35;;;;;;;19.76;67.62;100491.56;5062883;28;20425;-64
2022/06/19 10:50:14;;;;;;;26.55;9.38;;;;;;;19.35;69.07;100494.59;5054121;28;20052;-64
2022/06/19 10:53:21;;;;;;;23.55;8.02;;;;;;;19.72;67.95;100482.31;5056420;28;20041;-62
2022/06/19 10:55:54;;;;;;;25.65;8.52;;;;;;;20.04;66.82;100483.50;5065808;28;20127;-62
2022/06/19 10:58:26;;;;;;;27.17;9.32;;;;;;;20.44;65.05;100487.53;5041420;28;20510;-62
2022/06/19 11:01:02;;;;;;;22.58;8.48;;;;;;;20.09;66.26;100488.75;5063498;28;20048;-63
2022/06/19 11:06:48;;;;;;;25.63;8.50;;;;;;;19.42;69.29;100498.25;5076779;28;20053;-60
2022/06/19 11:09:19;;;;;;;22.95;9.10;;;;;;;19.57;68.85;100488.91;5043756;28;20059;-62
2022/06/19 11:11:48;;;;;;;26.05;9.90;;;;;;;19.76;67.78;100487.94;5073268;28;20040;-60
2022/06/19 11:14:29;;;;;;;20.40;8.45;;;;;;;19.92;67.83;100494.94;5070578;28;20052;-59
2022/06/19 11:17:06;;;;;;;23.95;8.18;;;;;;;19.98;67.61;100507.38;5071554;28;20056;-59
2022/06/19 11:19:35;;;;;;;19.15;7.95;;;;;;;20.14;67.47;100505.19;5061706;28;20059;-60
2022/06/19 11:22:24;;;;;;;21.30;8.77;;;;;;;20.28;66.59;100495.34;5055143;28;20048;-60
2022/06/19 11:24:53;;;;;;;19.02;7.53;;;;;;;20.31;65.83;100505.78;5076058;28;20055;-62
2022/06/19 11:27:26;;;;;;;26.90;8.27;;;;;;;20.33;66.85;100492.22;5061256;28;20143;-62
2022/06/19 11:29:55;;;;;;;26.88;8.35;;;;;;;20.06;67.36;100486.72;5041828;28;20555;-61
2022/06/19 11:32:24;;;;;;;35.92;8.98;;;;;;;20.30;67.75;100485.41;5083005;28;20044;-62
2022/06/19 11:35:06;;;;;;;21.13;9.40;;;;;;;20.00;68.04;100505.03;5051947;28;20040;-62
2022/06/19 11:37:44;;;;;;;20.88;8.35;;;;;;;19.47;69.43;100534.28;5074810;28;20063;-61
2022/06/19 11:40:19;;;;;;;20.63;8.45;;;;;;;20.05;68.09;100499.09;5073891;28;20052;-59
2022/06/19 11:42:52;;;;;;;22.98;8.80;;;;;;;19.52;69.62;100510.78;5050457;28;20550;-60
2022/06/19 11:45:24;;;;;;;18.95;9.25;;;;;;;19.29;69.78;100493.25;5074318;28;20059;-60
2022/06/19 11:47:54;;;;;;;21.42;8.35;;;;;;;19.40;70.00;100491.47;5061414;28;20052;-61
2022/06/19 11:50:35;;;;;;;;;;;;;;;19.31;69.81;100477.78;5076098;28;20048;-62
2022/06/19 11:53:05;;;;;;;20.42;8.13;;;;;;;19.52;68.82;100460.50;5072910;28;19920;-62